Time;durP1;ratioP1;P1;durP2;ratioP2;P2;SDS_P1;SDS_P2;PMS_P1;PMS_P2;Temp;Humidity;BMP_temperature;BMP_pressure;BME280_temperature;BME280_humidity;BME280_pressure;Samples;Min_cycle;Max_cycle;Signal;HPM_P1;HPM_P2
2023/12/05 00:00:00;;;;;;;0.10;0.10;;;;;;;;;;4948088;28;20146;-78
2023/12/05 00:02:27;;;;;;;0.10;0.10;;;;;;;;;;4949675;28;20064;-78
2023/12/05 00:04:53;;;;;;;0.85;0.85;;;;;;;;;;4952100;28;20059;-78
2023/12/05 00:07:22;;;;;;;0.10;0.10;;;;;;;;;;4969075;28;20628;-78
2023/12/05 00:09:49;;;;;;;0.10;0.10;;;;;;;;;;4946392;28;20066;-78
2023/12/05 00:12:16;;;;;;;0.10;0.10;;;;;;;;;;4949890;28;20059;-78
2023/12/05 00:14:42;;;;;;;0.10;0.10;;;;;;;;;;4947529;28;20056;-76
2023/12/05 00:17:08;;;;;;;0.10;0.10;;;;;;;;;;4948373;28;20131;-77
2023/12/05 00:19:35;;;;;;;0.10;0.10;;;;;;;;;;4949568;28;20055;-77
2023/12/05 00:22:01;;;;;;;0.20;0.20;;;;;;;;;;4948044;28;20090;-77
2023/12/05 00:24:28;;;;;;;0.10;0.10;;;;;;;;;;4949736;28;20093;-76
2023/12/05 00:26:54;;;;;;;0.10;0.10;;;;;;;;;;4947735;28;20058;-76
2023/12/05 00:29:21;;;;;;;0.10;0.10;;;;;;;;;;4949892;28;20142;-77
2023/12/05 00:31:47;;;;;;;0.10;0.10;;;;;;;;;;4966178;28;20067;-77
2023/12/05 00:34:14;;;;;;;0.10;0.10;;;;;;;;;;4945790;28;20063;-77
2023/12/05 00:36:40;;;;;;;0.10;0.10;;;;;;;;;;4946987;28;20932;-77
2023/12/05 00:39:07;;;;;;;0.10;0.10;;;;;;;;;;4968145;28;20345;-77
2023/12/05 00:41:34;;;;;;;0.10;0.10;;;;;;;;;;4972221;28;20055;-77
2023/12/05 00:44:00;;;;;;;0.10;0.10;;;;;;;;;;4964039;28;20060;-77
2023/12/05 00:46:27;;;;;;;1.00;1.00;;;;;;;;;;4948362;28;20056;-77
2023/12/05 00:48:54;;;;;;;0.13;0.13;;;;;;;;;;4960590;28;20115;-77
2023/12/05 00:51:21;;;;;;;0.85;0.85;;;;;;;;;;4949079;28;20060;-77
2023/12/05 00:53:47;;;;;;;0.10;0.10;;;;;;;;;;4948733;28;20056;-77
2023/12/05 00:56:14;;;;;;;0.10;0.10;;;;;;;;;;4953373;28;20063;-77
2023/12/05 00:58:40;;;;;;;0.80;0.80;;;;;;;;;;4969439;28;20051;-76
2023/12/05 01:01:07;;;;;;;0.10;0.10;;;;;;;;;;4949150;28;20060;-77
2023/12/05 01:03:34;;;;;;;0.22;0.22;;;;;;;;;;4945569;28;20132;-76
2023/12/05 01:06:00;;;;;;;0.10;0.10;;;;;;;;;;4949835;28;20058;-76
2023/12/05 01:08:27;;;;;;;0.20;0.20;;;;;;;;;;4947611;28;20814;-76
2023/12/05 01:10:53;;;;;;;0.10;0.10;;;;;;;;;;4948961;28;20059;-78
2023/12/05 01:13:20;;;;;;;0.10;0.10;;;;;;;;;;4948997;28;20047;-77
2023/12/05 01:15:47;;;;;;;0.30;0.30;;;;;;;;;;4951644;28;20146;-78
2023/12/05 01:18:13;;;;;;;0.10;0.10;;;;;;;;;;4948890;28;20060;-77
2023/12/05 01:20:40;;;;;;;0.10;0.10;;;;;;;;;;4946539;28;20060;-77
2023/12/05 01:23:06;;;;;;;0.28;0.28;;;;;;;;;;4973308;28;20063;-77
2023/12/05 01:25:33;;;;;;;0.10;0.10;;;;;;;;;;4948522;28;20593;-76
2023/12/05 01:27:59;;;;;;;0.10;0.10;;;;;;;;;;4948826;28;20056;-78
2023/12/05 01:30:25;;;;;;;0.10;0.10;;;;;;;;;;4949871;28;20155;-78
2023/12/05 01:32:52;;;;;;;0.10;0.10;;;;;;;;;;4949327;28;20071;-76
2023/12/05 01:35:18;;;;;;;0.10;0.10;;;;;;;;;;4946102;28;20066;-76
2023/12/05 01:37:45;;;;;;;0.10;0.10;;;;;;;;;;4968228;28;20719;-77
2023/12/05 01:40:11;;;;;;;0.10;0.10;;;;;;;;;;4963322;28;20499;-76
2023/12/05 01:42:38;;;;;;;0.10;0.10;;;;;;;;;;4948489;28;20063;-77
2023/12/05 01:45:05;;;;;;;0.30;0.30;;;;;;;;;;4945417;28;20834;-77
2023/12/05 01:47:35;;;;;;;0.10;0.10;;;;;;;;;;4952433;28;20521;-77
2023/12/05 01:50:03;;;;;;;0.10;0.10;;;;;;;;;;4959806;28;20055;-77
2023/12/05 01:52:30;;;;;;;0.10;0.10;;;;;;;;;;4929490;28;20530;-77
2023/12/05 01:54:57;;;;;;;0.10;0.10;;;;;;;;;;4949103;28;20055;-77
2023/12/05 01:57:24;;;;;;;0.10;0.10;;;;;;;;;;4966139;28;20152;-77
2023/12/05 01:59:51;;;;;;;0.10;0.10;;;;;;;;;;4949063;28;20130;-77
2023/12/05 02:02:17;;;;;;;0.10;0.10;;;;;;;;;;4946390;28;20170;-77
2023/12/05 02:04:44;;;;;;;0.10;0.10;;;;;;;;;;4953429;28;20056;-77
2023/12/05 02:07:12;;;;;;;0.10;0.10;;;;;;;;;;4963178;28;20055;-77
2023/12/05 02:09:39;;;;;;;0.10;0.10;;;;;;;;;;4946638;28;20064;-77
2023/12/05 02:12:05;;;;;;;0.10;0.10;;;;;;;;;;4947837;28;20485;-77
2023/12/05 02:14:32;;;;;;;0.10;0.10;;;;;;;;;;4951170;28;20537;-77
2023/12/05 02:17:09;;;;;;;0.10;0.10;;;;;;;;;;4948611;28;20063;-77
2023/12/05 02:19:42;;;;;;;0.10;0.10;;;;;;;;;;4958885;28;20060;-77
2023/12/05 02:22:12;;;;;;;0.10;0.10;;;;;;;;;;4937736;28;20090;-77
2023/12/05 02:24:44;;;;;;;0.10;0.10;;;;;;;;;;4925637;29;20088;-77
2023/12/05 02:27:30;;;;;;;0.10;0.10;;;;;;;;;;4921331;29;20060;-77
2023/12/05 02:29:56;;;;;;;0.10;0.10;;;;;;;;;;4973742;23;20113;-74
2023/12/05 02:32:22;;;;;;;0.10;0.10;;;;;;;;;;4995280;28;20139;-74
2023/12/05 02:34:50;;;;;;;0.10;0.10;;;;;;;;;;5001588;28;20971;-75
2023/12/05 02:37:19;;;;;;;0.10;0.10;;;;;;;;;;4997662;28;20090;-74
2023/12/05 02:39:49;;;;;;;0.20;0.20;;;;;;;;;;5011135;28;20059;-74
2023/12/05 02:42:17;;;;;;;0.20;0.20;;;;;;;;;;4997546;28;20059;-72
2023/12/05 02:44:46;;;;;;;1.73;1.65;;;;;;;;;;5000292;28;20672;-75
2023/12/05 02:47:13;;;;;;;0.10;0.10;;;;;;;;;;5000549;28;20108;-74
2023/12/05 02:49:40;;;;;;;0.10;0.10;;;;;;;;;;5002340;28;20553;-74
2023/12/05 02:52:07;;;;;;;0.10;0.10;;;;;;;;;;4997466;28;20054;-75
2023/12/05 02:54:33;;;;;;;0.10;0.10;;;;;;;;;;4993907;28;20509;-75
2023/12/05 02:56:59;;;;;;;0.10;0.10;;;;;;;;;;5001271;28;20058;-74
2023/12/05 02:59:26;;;;;;;0.57;0.30;;;;;;;;;;4995226;28;20078;-75
2023/12/05 03:01:52;;;;;;;0.10;0.10;;;;;;;;;;4994025;28;20063;-75
2023/12/05 03:04:19;;;;;;;0.10;0.10;;;;;;;;;;4996829;28;20061;-75
2023/12/05 03:06:45;;;;;;;0.10;0.10;;;;;;;;;;5004207;28;20042;-74
2023/12/05 03:09:12;;;;;;;0.10;0.10;;;;;;;;;;5000605;28;20062;-74
2023/12/05 03:11:38;;;;;;;0.10;0.10;;;;;;;;;;4998363;28;20046;-74
2023/12/05 03:14:05;;;;;;;0.10;0.10;;;;;;;;;;4997367;28;20050;-75
2023/12/05 03:16:32;;;;;;;0.10;0.10;;;;;;;;;;4996661;28;20623;-74
2023/12/05 03:18:58;;;;;;;0.10;0.10;;;;;;;;;;4990358;28;20137;-75
2023/12/05 03:21:25;;;;;;;0.10;0.10;;;;;;;;;;4990334;28;20058;-75
2023/12/05 03:23:52;;;;;;;0.57;0.57;;;;;;;;;;4996255;28;20624;-74
2023/12/05 03:26:19;;;;;;;0.10;0.10;;;;;;;;;;4997197;28;20082;-72
2023/12/05 03:28:47;;;;;;;0.10;0.10;;;;;;;;;;5001786;28;20082;-74
2023/12/05 03:31:13;;;;;;;0.10;0.10;;;;;;;;;;5018048;28;20140;-74
2023/12/05 03:33:39;;;;;;;0.10;0.10;;;;;;;;;;5012324;28;20054;-75
2023/12/05 03:36:06;;;;;;;0.10;0.10;;;;;;;;;;5016654;28;20050;-75
2023/12/05 03:38:33;;;;;;;0.10;0.10;;;;;;;;;;5015186;28;20051;-75
2023/12/05 03:40:59;;;;;;;0.10;0.10;;;;;;;;;;5017301;28;20145;-73
2023/12/05 03:43:25;;;;;;;0.13;0.13;;;;;;;;;;5019230;28;20057;-74
2023/12/05 03:45:52;;;;;;;0.20;0.20;;;;;;;;;;5012797;28;20516;-75
2023/12/05 03:48:18;;;;;;;0.10;0.10;;;;;;;;;;5022329;28;21136;-74
2023/12/05 03:50:45;;;;;;;0.10;0.10;;;;;;;;;;5012582;28;20056;-74
2023/12/05 03:53:11;;;;;;;0.20;0.20;;;;;;;;;;5020136;28;20149;-72
2023/12/05 03:55:37;;;;;;;0.30;0.30;;;;;;;;;;5008990;28;20081;-75
2023/12/05 03:58:04;;;;;;;0.10;0.10;;;;;;;;;;5014991;28;20551;-72
2023/12/05 04:00:30;;;;;;;0.10;0.10;;;;;;;;;;5024427;28;20054;-73
2023/12/05 04:02:57;;;;;;;0.15;0.15;;;;;;;;;;5014070;28;20057;-75
2023/12/05 04:05:23;;;;;;;0.30;0.30;;;;;;;;;;5022606;28;20144;-74
2023/12/05 04:07:49;;;;;;;0.10;0.10;;;;;;;;;;5024773;28;20145;-75
2023/12/05 04:10:16;;;;;;;0.10;0.10;;;;;;;;;;5021360;28;21063;-74
2023/12/05 04:12:42;;;;;;;0.55;0.55;;;;;;;;;;5027675;28;20508;-75
2023/12/05 04:15:09;;;;;;;0.13;0.13;;;;;;;;;;5021882;28;20050;-74
2023/12/05 04:17:35;;;;;;;0.10;0.10;;;;;;;;;;5025990;28;20528;-73
2023/12/05 04:20:03;;;;;;;0.10;0.10;;;;;;;;;;5026946;28;20060;-74
2023/12/05 04:22:30;;;;;;;0.10;0.10;;;;;;;;;;5014616;28;20054;-74
2023/12/05 04:24:56;;;;;;;0.10;0.10;;;;;;;;;;5031692;28;20140;-74
2023/12/05 04:27:23;;;;;;;0.10;0.10;;;;;;;;;;5028368;28;20104;-74
2023/12/05 04:29:49;;;;;;;0.10;0.10;;;;;;;;;;5014316;28;20068;-75
2023/12/05 04:32:15;;;;;;;0.10;0.10;;;;;;;;;;5020001;28;20046;-74
2023/12/05 04:34:43;;;;;;;0.10;0.10;;;;;;;;;;5019004;28;20145;-75
2023/12/05 04:37:09;;;;;;;0.10;0.10;;;;;;;;;;5022215;28;20140;-74
2023/12/05 04:39:36;;;;;;;0.10;0.10;;;;;;;;;;5025990;28;20058;-75
2023/12/05 04:42:03;;;;;;;0.10;0.10;;;;;;;;;;5022472;28;20061;-73
2023/12/05 04:44:29;;;;;;;0.10;0.10;;;;;;;;;;5027018;28;20590;-74
2023/12/05 04:46:57;;;;;;;0.30;0.30;;;;;;;;;;5024715;28;20566;-74
2023/12/05 04:49:24;;;;;;;0.30;0.30;;;;;;;;;;5021963;28;20439;-74
2023/12/05 04:51:50;;;;;;;0.10;0.10;;;;;;;;;;5027249;28;20133;-74
2023/12/05 04:54:16;;;;;;;0.10;0.10;;;;;;;;;;5024757;28;20061;-74
2023/12/05 04:56:43;;;;;;;0.10;0.10;;;;;;;;;;5027613;28;20075;-73
2023/12/05 04:59:09;;;;;;;0.10;0.10;;;;;;;;;;5021415;28;20054;-74
2023/12/05 05:01:36;;;;;;;0.20;0.20;;;;;;;;;;5017461;28;20109;-74
2023/12/05 05:04:02;;;;;;;0.10;0.10;;;;;;;;;;5028549;28;20906;-74
2023/12/05 05:06:30;;;;;;;0.77;0.77;;;;;;;;;;5008551;28;20149;-73
2023/12/05 05:08:56;;;;;;;1.75;1.65;;;;;;;;;;5027598;28;20195;-74
2023/12/05 05:11:23;;;;;;;0.10;0.10;;;;;;;;;;5024714;28;20058;-73
2023/12/05 05:13:49;;;;;;;1.45;1.35;;;;;;;;;;5027657;28;20054;-74
2023/12/05 05:16:23;;;;;;;0.20;0.20;;;;;;;;;;5025870;28;20062;-74
2023/12/05 05:18:51;;;;;;;0.10;0.10;;;;;;;;;;5021470;28;20105;-74
2023/12/05 05:21:18;;;;;;;0.10;0.10;;;;;;;;;;5020085;28;20058;-74
2023/12/05 05:23:46;;;;;;;0.10;0.10;;;;;;;;;;5019676;28;20054;-73
2023/12/05 05:26:14;;;;;;;0.10;0.10;;;;;;;;;;5018053;28;20197;-74
2023/12/05 05:28:40;;;;;;;0.10;0.10;;;;;;;;;;5015048;28;20058;-72
2023/12/05 05:31:06;;;;;;;0.10;0.10;;;;;;;;;;5017159;28;20114;-74
2023/12/05 05:33:33;;;;;;;0.10;0.10;;;;;;;;;;5014164;28;20093;-73
2023/12/05 05:35:59;;;;;;;0.10;0.10;;;;;;;;;;5016306;28;20049;-74
2023/12/05 05:38:26;;;;;;;0.20;0.20;;;;;;;;;;5012329;28;20082;-74
2023/12/05 05:41:02;;;;;;;0.10;0.10;;;;;;;;;;5017781;28;20160;-74
2023/12/05 05:43:28;;;;;;;0.10;0.10;;;;;;;;;;5023451;28;20057;-73
2023/12/05 05:45:54;;;;;;;0.10;0.10;;;;;;;;;;5012072;28;20144;-74
2023/12/05 05:48:21;;;;;;;0.68;0.68;;;;;;;;;;5015907;28;20500;-77
2023/12/05 05:50:47;;;;;;;0.10;0.10;;;;;;;;;;5018957;28;20050;-74
2023/12/05 05:53:14;;;;;;;0.10;0.10;;;;;;;;;;5015112;28;20137;-74
2023/12/05 05:55:40;;;;;;;0.10;0.10;;;;;;;;;;5006891;28;20129;-73
2023/12/05 05:58:10;;;;;;;0.52;0.52;;;;;;;;;;5023921;28;20209;-74
2023/12/05 06:00:36;;;;;;;0.10;0.10;;;;;;;;;;5001534;28;20054;-72
2023/12/05 06:03:03;;;;;;;0.10;0.10;;;;;;;;;;5017021;28;20072;-74
2023/12/05 06:05:29;;;;;;;0.15;0.15;;;;;;;;;;5019631;28;20054;-74
2023/12/05 06:07:56;;;;;;;0.10;0.10;;;;;;;;;;5013988;28;20061;-74
2023/12/05 06:10:23;;;;;;;0.10;0.10;;;;;;;;;;5010331;28;20093;-73
2023/12/05 06:12:49;;;;;;;0.10;0.10;;;;;;;;;;5023535;28;20057;-73
2023/12/05 06:15:16;;;;;;;0.10;0.10;;;;;;;;;;5012697;28;20054;-72
2023/12/05 06:17:42;;;;;;;0.20;0.20;;;;;;;;;;5019322;28;20050;-74
2023/12/05 06:20:09;;;;;;;0.10;0.10;;;;;;;;;;5017511;28;20128;-74
2023/12/05 06:22:35;;;;;;;0.68;0.68;;;;;;;;;;5021429;28;20060;-74
2023/12/05 06:25:02;;;;;;;0.10;0.10;;;;;;;;;;5018604;28;20093;-74
2023/12/05 06:27:28;;;;;;;0.10;0.10;;;;;;;;;;5014254;28;20508;-74
2023/12/05 06:29:54;;;;;;;0.10;0.10;;;;;;;;;;5021385;28;20100;-73
2023/12/05 06:32:21;;;;;;;0.22;0.22;;;;;;;;;;5018144;28;20513;-73
2023/12/05 06:34:48;;;;;;;0.10;0.10;;;;;;;;;;5016659;28;20136;-74
2023/12/05 06:37:14;;;;;;;0.10;0.10;;;;;;;;;;5013464;28;20325;-74
2023/12/05 06:39:40;;;;;;;1.65;1.55;;;;;;;;;;5012387;28;20054;-72
2023/12/05 06:42:07;;;;;;;0.30;0.30;;;;;;;;;;5012325;28;20149;-74
2023/12/05 06:44:33;;;;;;;0.10;0.10;;;;;;;;;;5026080;28;20563;-74
2023/12/05 06:47:00;;;;;;;0.10;0.10;;;;;;;;;;5016223;28;20061;-74
2023/12/05 06:49:26;;;;;;;0.10;0.10;;;;;;;;;;5022454;28;20049;-74
2023/12/05 06:51:57;;;;;;;0.13;0.13;;;;;;;;;;5020695;28;20527;-75
2023/12/05 06:54:24;;;;;;;0.38;0.38;;;;;;;;;;5010869;28;20512;-76
2023/12/05 06:56:51;;;;;;;1.13;1.10;;;;;;;;;;5000453;28;20552;-76
2023/12/05 06:59:17;;;;;;;0.10;0.10;;;;;;;;;;5019957;28;20574;-76
2023/12/05 07:01:43;;;;;;;0.10;0.10;;;;;;;;;;5018757;28;20141;-73
2023/12/05 07:04:10;;;;;;;0.10;0.10;;;;;;;;;;5022069;28;20057;-74
2023/12/05 07:06:36;;;;;;;0.10;0.10;;;;;;;;;;5018946;28;20089;-73
2023/12/05 07:09:04;;;;;;;0.30;0.30;;;;;;;;;;5021828;28;20432;-76
2023/12/05 07:11:31;;;;;;;0.10;0.10;;;;;;;;;;5019133;28;20599;-74
2023/12/05 07:13:57;;;;;;;0.40;0.40;;;;;;;;;;5019273;28;20866;-74
2023/12/05 07:16:24;;;;;;;0.10;0.10;;;;;;;;;;5017164;28;20054;-71
2023/12/05 07:18:50;;;;;;;0.55;0.55;;;;;;;;;;5017294;28;20502;-73
2023/12/05 07:21:20;;;;;;;0.10;0.10;;;;;;;;;;5019439;28;20683;-72
2023/12/05 07:23:46;;;;;;;0.10;0.10;;;;;;;;;;5028225;28;21247;-73
2023/12/05 07:26:25;;;;;;;0.10;0.10;;;;;;;;;;5027499;28;20136;-72
2023/12/05 07:28:52;;;;;;;0.10;0.10;;;;;;;;;;5027681;28;20509;-72
2023/12/05 07:31:19;;;;;;;0.10;0.10;;;;;;;;;;5024026;28;20113;-74
2023/12/05 07:33:46;;;;;;;0.20;0.20;;;;;;;;;;5016263;28;20113;-73
2023/12/05 07:36:13;;;;;;;0.95;0.95;;;;;;;;;;5019038;28;20524;-75
2023/12/05 07:38:39;;;;;;;0.10;0.10;;;;;;;;;;4994123;28;20089;-75
2023/12/05 07:41:05;;;;;;;8.13;2.70;;;;;;;;;;5007281;28;20220;-75
2023/12/05 07:43:32;;;;;;;0.10;0.10;;;;;;;;;;5022827;28;20532;-75
2023/12/05 07:45:58;;;;;;;0.10;0.10;;;;;;;;;;5021458;28;20109;-74
2023/12/05 07:48:25;;;;;;;1.40;1.35;;;;;;;;;;5007332;28;20133;-74
2023/12/05 07:50:51;;;;;;;0.38;0.38;;;;;;;;;;5008361;28;20057;-75
2023/12/05 07:53:18;;;;;;;0.10;0.10;;;;;;;;;;5016368;28;20058;-76
2023/12/05 07:55:44;;;;;;;0.10;0.10;;;;;;;;;;5020502;28;20053;-75
2023/12/05 07:58:10;;;;;;;0.10;0.10;;;;;;;;;;5018214;28;20053;-76
2023/12/05 08:00:39;;;;;;;0.10;0.10;;;;;;;;;;5022451;28;20053;-74
2023/12/05 08:03:06;;;;;;;0.10;0.10;;;;;;;;;;5007247;28;20627;-76
2023/12/05 08:05:33;;;;;;;0.20;0.20;;;;;;;;;;5013935;28;20057;-74
2023/12/05 08:07:59;;;;;;;0.10;0.10;;;;;;;;;;5024812;28;20058;-75
2023/12/05 08:10:26;;;;;;;0.10;0.10;;;;;;;;;;5022884;28;20057;-73
2023/12/05 08:12:52;;;;;;;0.10;0.10;;;;;;;;;;5026516;28;20065;-76
2023/12/05 08:15:19;;;;;;;0.40;0.40;;;;;;;;;;5010049;28;20054;-75
2023/12/05 08:17:47;;;;;;;0.13;0.13;;;;;;;;;;5019093;28;20588;-76
2023/12/05 08:20:14;;;;;;;0.13;0.13;;;;;;;;;;5015383;28;20054;-73
2023/12/05 08:22:40;;;;;;;0.50;0.50;;;;;;;;;;5012937;28;20066;-75
2023/12/05 08:25:08;;;;;;;0.20;0.20;;;;;;;;;;5009107;28;20219;-75
2023/12/05 08:27:35;;;;;;;0.10;0.10;;;;;;;;;;5018958;28;20112;-76
2023/12/05 08:30:02;;;;;;;0.10;0.10;;;;;;;;;;5014324;28;20171;-76
2023/12/05 08:32:29;;;;;;;0.10;0.10;;;;;;;;;;5006754;28;20051;-76
2023/12/05 08:34:55;;;;;;;1.58;1.48;;;;;;;;;;5016472;28;20049;-76
2023/12/05 08:37:23;;;;;;;0.10;0.10;;;;;;;;;;5013778;28;20054;-75
2023/12/05 08:39:49;;;;;;;0.13;0.13;;;;;;;;;;5089262;23;20057;-78
2023/12/05 08:42:15;;;;;;;0.10;0.10;;;;;;;;;;5043737;28;20057;-80
2023/12/05 08:44:42;;;;;;;0.10;0.10;;;;;;;;;;5047517;28;20053;-77
2023/12/05 08:47:09;;;;;;;0.10;0.10;;;;;;;;;;5048404;28;20100;-81
2023/12/05 08:49:35;;;;;;;1.00;0.82;;;;;;;;;;5046882;28;20037;-81
2023/12/05 08:52:01;;;;;;;0.20;0.20;;;;;;;;;;5043980;28;20062;-77
2023/12/05 08:54:28;;;;;;;0.10;0.10;;;;;;;;;;5048146;28;20582;-78
2023/12/05 08:56:55;;;;;;;0.43;0.43;;;;;;;;;;5028392;28;20105;-78
2023/12/05 08:59:21;;;;;;;0.32;0.32;;;;;;;;;;5045809;28;20055;-79
2023/12/05 09:01:48;;;;;;;0.10;0.10;;;;;;;;;;5028996;28;20169;-78
2023/12/05 09:04:14;;;;;;;0.10;0.10;;;;;;;;;;5039203;28;20060;-78
2023/12/05 09:06:42;;;;;;;0.10;0.10;;;;;;;;;;5044649;28;20068;-79
2023/12/05 09:09:09;;;;;;;0.10;0.10;;;;;;;;;;5028658;28;20057;-79
2023/12/05 09:11:37;;;;;;;0.52;0.52;;;;;;;;;;5027827;28;20048;-81
2023/12/05 09:14:05;;;;;;;0.10;0.10;;;;;;;;;;5030693;28;20181;-78
2023/12/05 09:16:32;;;;;;;0.10;0.10;;;;;;;;;;5046920;28;20417;-80
2023/12/05 09:18:59;;;;;;;2.83;1.65;;;;;;;;;;5028270;28;20121;-79
2023/12/05 09:21:26;;;;;;;0.20;0.20;;;;;;;;;;5047615;28;20065;-80
2023/12/05 09:23:52;;;;;;;0.10;0.10;;;;;;;;;;5045465;28;20510;-80
2023/12/05 09:26:19;;;;;;;0.10;0.10;;;;;;;;;;5029177;28;20892;-80
2023/12/05 09:28:45;;;;;;;0.10;0.10;;;;;;;;;;5027071;28;20143;-82
2023/12/05 09:31:11;;;;;;;0.10;0.10;;;;;;;;;;5046782;28;20169;-81
2023/12/05 09:33:38;;;;;;;1.20;1.17;;;;;;;;;;5029021;28;20134;-78
2023/12/05 09:36:04;;;;;;;0.35;0.35;;;;;;;;;;5048147;28;20049;-82
2023/12/05 09:38:31;;;;;;;0.10;0.10;;;;;;;;;;5031661;28;20112;-82
2023/12/05 09:40:57;;;;;;;0.10;0.10;;;;;;;;;;5026442;28;20060;-82
2023/12/05 09:43:24;;;;;;;0.10;0.10;;;;;;;;;;5030598;28;20046;-82
2023/12/05 09:46:00;;;;;;;0.10;0.10;;;;;;;;;;5046466;28;20890;-80
2023/12/05 09:48:28;;;;;;;0.10;0.10;;;;;;;;;;5048132;28;20049;-82
2023/12/05 09:50:55;;;;;;;0.20;0.20;;;;;;;;;;5028996;28;20108;-79
2023/12/05 09:53:23;;;;;;;0.10;0.10;;;;;;;;;;5029210;28;20065;-84
2023/12/05 09:55:49;;;;;;;0.52;0.52;;;;;;;;;;5029661;28;20127;-79
2023/12/05 09:58:16;;;;;;;0.10;0.10;;;;;;;;;;5046099;28;20058;-80
2023/12/05 10:00:43;;;;;;;0.17;0.17;;;;;;;;;;5029820;28;20057;-81
2023/12/05 10:03:09;;;;;;;0.13;0.13;;;;;;;;;;5043642;28;20057;-77
2023/12/05 10:05:39;;;;;;;0.10;0.10;;;;;;;;;;5030221;28;20053;-80
2023/12/05 10:08:06;;;;;;;0.10;0.10;;;;;;;;;;5048903;28;20033;-79
2023/12/05 10:10:33;;;;;;;0.10;0.10;;;;;;;;;;5032571;28;20046;-80
2023/12/05 10:13:01;;;;;;;1.58;1.20;;;;;;;;;;5050103;28;20507;-79
2023/12/05 10:15:28;;;;;;;0.10;0.10;;;;;;;;;;5049162;28;20104;-80
2023/12/05 10:17:55;;;;;;;0.10;0.10;;;;;;;;;;5053520;28;20149;-82
2023/12/05 10:20:21;;;;;;;0.10;0.10;;;;;;;;;;5052195;28;20548;-80
2023/12/05 10:22:48;;;;;;;0.10;0.10;;;;;;;;;;5051224;28;20056;-81
2023/12/05 10:25:15;;;;;;;0.10;0.10;;;;;;;;;;5036019;28;20050;-78
2023/12/05 10:27:41;;;;;;;0.10;0.10;;;;;;;;;;5056928;28;20045;-82
2023/12/05 10:30:08;;;;;;;0.10;0.10;;;;;;;;;;5053358;28;20065;-82
2023/12/05 10:32:36;;;;;;;0.10;0.10;;;;;;;;;;5049418;28;21166;-82
2023/12/05 10:35:03;;;;;;;0.10;0.10;;;;;;;;;;5052863;28;20060;-81
2023/12/05 10:37:29;;;;;;;0.10;0.10;;;;;;;;;;5034199;28;20569;-81
2023/12/05 10:39:58;;;;;;;0.10;0.10;;;;;;;;;;5051573;28;20049;-81
2023/12/05 10:42:28;;;;;;;0.10;0.10;;;;;;;;;;5028109;28;20144;-81
2023/12/05 10:44:55;;;;;;;1.85;1.48;;;;;;;;;;5053752;28;20080;-81
2023/12/05 10:47:22;;;;;;;0.10;0.10;;;;;;;;;;5030976;28;20057;-82
2023/12/05 10:49:49;;;;;;;0.25;0.25;;;;;;;;;;5049162;28;20955;-79
2023/12/05 10:52:16;;;;;;;0.20;0.20;;;;;;;;;;5049138;28;20054;-81
2023/12/05 10:54:44;;;;;;;0.88;0.77;;;;;;;;;;5050113;28;20140;-80
2023/12/05 10:57:10;;;;;;;1.50;1.40;;;;;;;;;;5032215;28;20057;-81
2023/12/05 10:59:38;;;;;;;0.10;0.10;;;;;;;;;;5032057;28;20065;-80
2023/12/05 11:02:12;;;;;;;0.38;0.38;;;;;;;;;;5045273;28;20119;-80
2023/12/05 11:04:42;;;;;;;0.38;0.38;;;;;;;;;;5047320;28;20101;-80
2023/12/05 11:07:09;;;;;;;0.10;0.10;;;;;;;;;;5031258;28;20127;-80
2023/12/05 11:09:35;;;;;;;0.10;0.10;;;;;;;;;;5046109;28;20053;-79
2023/12/05 11:12:04;;;;;;;2.40;1.38;;;;;;;;;;5047367;28;20049;-79
2023/12/05 11:14:33;;;;;;;0.10;0.10;;;;;;;;;;5047040;28;20865;-79
2023/12/05 11:17:03;;;;;;;0.30;0.30;;;;;;;;;;5029869;28;20053;-80
2023/12/05 11:19:32;;;;;;;0.20;0.20;;;;;;;;;;5048256;28;20062;-81
2023/12/05 11:22:18;;;;;;;0.10;0.10;;;;;;;;;;5027982;28;20050;-80
2023/12/05 11:24:54;;;;;;;0.10;0.10;;;;;;;;;;5027563;28;20057;-81
2023/12/05 11:27:25;;;;;;;0.10;0.10;;;;;;;;;;5050057;28;20060;-80
2023/12/05 11:29:54;;;;;;;0.10;0.10;;;;;;;;;;5031039;28;20499;-80
2023/12/05 11:32:46;;;;;;;0.10;0.10;;;;;;;;;;5026919;28;20061;-81
2023/12/05 11:35:22;;;;;;;0.10;0.10;;;;;;;;;;5032272;28;20127;-81
2023/12/05 11:38:02;;;;;;;0.17;0.17;;;;;;;;;;5049113;28;20046;-81
2023/12/05 11:40:29;;;;;;;0.10;0.10;;;;;;;;;;5045862;28;20057;-82
2023/12/05 11:43:06;;;;;;;0.10;0.10;;;;;;;;;;5019609;28;20141;-81
2023/12/05 11:45:34;;;;;;;0.05;0.05;;;;;;;;;;5045072;28;20107;-80
2023/12/05 11:48:01;;;;;;;0.20;0.20;;;;;;;;;;5031120;28;20057;-83
2023/12/05 11:50:41;;;;;;;0.10;0.10;;;;;;;;;;5032274;28;21033;-81
2023/12/05 11:53:09;;;;;;;0.10;0.10;;;;;;;;;;5042943;28;20439;-81
2023/12/05 11:55:35;;;;;;;0.20;0.20;;;;;;;;;;5049031;28;20827;-82
2023/12/05 11:58:02;;;;;;;0.10;0.10;;;;;;;;;;5050008;28;20060;-82
2023/12/05 12:00:30;;;;;;;0.10;0.10;;;;;;;;;;5050564;28;20068;-82
2023/12/05 12:02:57;;;;;;;0.10;0.10;;;;;;;;;;5048792;28;20135;-81
2023/12/05 12:05:24;;;;;;;0.10;0.10;;;;;;;;;;5050689;28;20057;-83
2023/12/05 12:07:57;;;;;;;0.50;0.50;;;;;;;;;;5042764;28;20084;-81
2023/12/05 12:10:26;;;;;;;0.10;0.10;;;;;;;;;;5044989;28;20053;-81
2023/12/05 12:12:52;;;;;;;0.10;0.10;;;;;;;;;;5029788;28;20053;-83
2023/12/05 12:15:20;;;;;;;0.15;0.15;;;;;;;;;;5032039;28;20062;-81
2023/12/05 12:17:47;;;;;;;0.10;0.10;;;;;;;;;;5032545;28;20058;-81
2023/12/05 12:20:14;;;;;;;0.10;0.10;;;;;;;;;;5049593;28;20132;-80
2023/12/05 12:22:43;;;;;;;0.10;0.10;;;;;;;;;;5031258;28;20060;-82
2023/12/05 12:25:13;;;;;;;0.10;0.10;;;;;;;;;;5050227;28;20100;-82
2023/12/05 12:27:40;;;;;;;0.28;0.28;;;;;;;;;;5047472;28;20056;-81
2023/12/05 12:30:07;;;;;;;0.30;0.30;;;;;;;;;;5032313;28;20096;-80
2023/12/05 12:32:35;;;;;;;0.10;0.10;;;;;;;;;;5045691;28;20529;-81
2023/12/05 12:35:02;;;;;;;0.10;0.10;;;;;;;;;;5034448;28;20049;-82
2023/12/05 12:37:29;;;;;;;0.10;0.10;;;;;;;;;;5030025;28;20056;-80
2023/12/05 12:40:07;;;;;;;0.10;0.10;;;;;;;;;;5032864;28;20753;-80
2023/12/05 12:42:33;;;;;;;0.10;0.10;;;;;;;;;;5054445;28;20045;-80
2023/12/05 12:45:00;;;;;;;0.10;0.10;;;;;;;;;;5048865;28;20038;-80
2023/12/05 12:47:26;;;;;;;0.45;0.45;;;;;;;;;;5029104;28;20140;-80
2023/12/05 12:49:53;;;;;;;0.10;0.10;;;;;;;;;;5047906;28;20594;-80
2023/12/05 12:52:20;;;;;;;0.45;0.45;;;;;;;;;;5047522;28;20500;-82
2023/12/05 12:54:46;;;;;;;0.10;0.10;;;;;;;;;;5051159;28;20053;-80
2023/12/05 12:57:13;;;;;;;0.30;0.30;;;;;;;;;;5051140;28;20068;-80
2023/12/05 12:59:39;;;;;;;0.10;0.10;;;;;;;;;;5047984;28;20176;-81
2023/12/05 13:02:06;;;;;;;0.10;0.10;;;;;;;;;;5029204;28;20056;-80
2023/12/05 13:04:34;;;;;;;0.10;0.10;;;;;;;;;;5048634;28;20053;-80
2023/12/05 13:07:01;;;;;;;2.88;2.67;;;;;;;;;;5048519;28;20057;-80
2023/12/05 13:09:28;;;;;;;0.13;0.13;;;;;;;;;;5046636;28;20452;-82
2023/12/05 13:11:57;;;;;;;0.10;0.10;;;;;;;;;;5028663;28;20070;-81
2023/12/05 13:14:24;;;;;;;0.10;0.10;;;;;;;;;;5030508;28;20096;-79
2023/12/05 13:16:50;;;;;;;0.10;0.10;;;;;;;;;;5047316;28;20061;-79
2023/12/05 13:19:27;;;;;;;0.10;0.10;;;;;;;;;;5049798;28;20057;-81
2023/12/05 13:21:55;;;;;;;0.35;0.35;;;;;;;;;;5055400;28;20100;-83
2023/12/05 13:24:21;;;;;;;0.10;0.10;;;;;;;;;;5052138;28;20061;-81
2023/12/05 13:26:48;;;;;;;0.10;0.10;;;;;;;;;;5029249;28;20530;-81
2023/12/05 13:29:15;;;;;;;0.10;0.10;;;;;;;;;;5047036;28;20049;-81
2023/12/05 13:31:41;;;;;;;0.10;0.10;;;;;;;;;;5046915;28;20050;-81
2023/12/05 13:34:07;;;;;;;0.17;0.17;;;;;;;;;;5045998;28;20519;-82
2023/12/05 13:36:34;;;;;;;0.10;0.10;;;;;;;;;;5025606;28;20049;-81
2023/12/05 13:39:02;;;;;;;0.10;0.10;;;;;;;;;;5030514;28;20057;-80
2023/12/05 13:41:31;;;;;;;0.68;0.68;;;;;;;;;;5045636;28;20056;-80
2023/12/05 13:44:03;;;;;;;0.10;0.10;;;;;;;;;;5044686;28;20050;-82
2023/12/05 13:46:29;;;;;;;0.10;0.10;;;;;;;;;;5047024;28;20550;-81
2023/12/05 13:49:04;;;;;;;0.20;0.20;;;;;;;;;;5048616;28;20041;-82
2023/12/05 13:51:31;;;;;;;0.20;0.20;;;;;;;;;;5048287;28;20058;-82
2023/12/05 13:53:59;;;;;;;0.50;0.50;;;;;;;;;;5048551;28;20060;-81
2023/12/05 13:56:26;;;;;;;0.10;0.10;;;;;;;;;;5030375;28;20057;-81
2023/12/05 13:58:53;;;;;;;0.10;0.10;;;;;;;;;;5028662;28;20062;-81
2023/12/05 14:01:19;;;;;;;0.10;0.10;;;;;;;;;;5027633;28;20062;-80
2023/12/05 14:03:46;;;;;;;0.10;0.10;;;;;;;;;;5030589;28;20131;-81
2023/12/05 14:06:13;;;;;;;0.10;0.10;;;;;;;;;;5047505;28;20113;-82
2023/12/05 14:08:39;;;;;;;0.10;0.10;;;;;;;;;;5047753;28;20795;-82
2023/12/05 14:11:06;;;;;;;0.10;0.10;;;;;;;;;;5030336;28;20073;-81
2023/12/05 14:13:34;;;;;;;0.10;0.10;;;;;;;;;;5030351;28;20530;-81
2023/12/05 14:16:01;;;;;;;0.13;0.13;;;;;;;;;;5046987;28;20056;-81
2023/12/05 14:18:27;;;;;;;1.30;1.20;;;;;;;;;;5044843;28;20057;-82
2023/12/05 14:20:54;;;;;;;0.10;0.10;;;;;;;;;;5028728;28;20038;-81
2023/12/05 14:23:25;;;;;;;0.40;0.40;;;;;;;;;;5025119;28;20089;-81
2023/12/05 14:25:51;;;;;;;0.20;0.20;;;;;;;;;;5032670;28;20137;-80
2023/12/05 14:28:18;;;;;;;0.10;0.10;;;;;;;;;;5044011;28;20054;-81
2023/12/05 14:30:44;;;;;;;0.10;0.10;;;;;;;;;;5046232;28;20104;-81
2023/12/05 14:33:11;;;;;;;0.10;0.10;;;;;;;;;;5048703;28;20110;-81
2023/12/05 14:35:37;;;;;;;0.10;0.10;;;;;;;;;;5047262;28;20763;-81
2023/12/05 14:38:03;;;;;;;0.88;0.88;;;;;;;;;;5029082;28;20057;-82
2023/12/05 14:40:30;;;;;;;0.20;0.20;;;;;;;;;;5044816;28;20076;-80
2023/12/05 14:42:56;;;;;;;0.15;0.15;;;;;;;;;;5052854;28;20089;-80